Time;durP1;ratioP1;P1;durP2;ratioP2;P2;SDS_P1;SDS_P2;PMS_P1;PMS_P2;Temp;Humidity;BMP_temperature;BMP_pressure;BME280_temperature;BME280_humidity;BME280_pressure;Samples;Min_cycle;Max_cycle;Signal;HPM_P1;HPM_P2
2023/10/14 00:01:45;;;;;;;3.35;1.30;;;19.60;99.90;;;;;;4402081;32;20074;-62
2023/10/14 00:04:11;;;;;;;1.42;0.95;;;19.50;99.90;;;;;;4399523;32;20090;-62
2023/10/14 00:06:39;;;;;;;0.40;0.40;;;19.50;99.90;;;;;;4400190;32;20098;-60
2023/10/14 00:09:11;;;;;;;0.80;0.65;;;19.50;99.90;;;;;;4397245;32;20093;-61
2023/10/14 00:11:43;;;;;;;1.90;0.73;;;19.40;99.90;;;;;;4398443;32;20074;-60
2023/10/14 00:14:14;;;;;;;2.05;1.17;;;19.30;99.90;;;;;;4397686;32;20094;-61
2023/10/14 00:16:42;;;;;;;0.62;0.62;;;19.30;99.90;;;;;;4383949;32;20109;-61
2023/10/14 00:19:09;;;;;;;1.15;1.08;;;19.30;99.90;;;;;;4386101;32;20521;-61
2023/10/14 00:21:35;;;;;;;0.57;0.57;;;19.30;99.90;;;;;;4388803;32;20062;-62
2023/10/14 00:24:03;;;;;;;1.23;1.12;;;19.10;99.90;;;;;;4387469;32;20093;-62
2023/10/14 00:26:30;;;;;;;1.02;0.90;;;19.00;99.90;;;;;;4400964;32;21077;-61
2023/10/14 00:29:16;;;;;;;1.27;1.08;;;19.00;99.90;;;;;;4390000;32;20089;-62
2023/10/14 00:31:43;;;;;;;0.62;0.62;;;18.90;99.90;;;;;;4401972;32;20574;-62
2023/10/14 00:34:08;;;;;;;6.70;1.45;;;18.90;99.90;;;;;;4401875;32;20188;-61
2023/10/14 00:36:34;;;;;;;7.62;1.95;;;18.80;99.90;;;;;;4399024;32;20141;-62
2023/10/14 00:39:00;;;;;;;1.27;0.75;;;18.80;99.90;;;;;;4398791;32;20082;-61
2023/10/14 00:41:27;;;;;;;3.20;1.55;;;18.80;99.90;;;;;;4402735;32;20101;-61
2023/10/14 00:43:53;;;;;;;8.02;1.20;;;18.80;99.90;;;;;;4387615;32;20085;-61
2023/10/14 00:46:23;;;;;;;1.55;1.30;;;18.80;99.90;;;;;;4385532;32;20179;-61
2023/10/14 00:48:50;;;;;;;1.95;1.25;;;18.90;99.90;;;;;;4398902;32;20541;-60
2023/10/14 00:51:19;;;;;;;3.65;0.90;;;18.90;99.90;;;;;;4387669;32;20581;-61
2023/10/14 00:53:53;;;;;;;6.90;2.05;;;18.90;99.90;;;;;;4388561;32;20093;-61
2023/10/14 00:56:20;;;;;;;3.20;1.80;;;18.90;99.90;;;;;;4384771;32;20218;-61
2023/10/14 00:58:51;;;;;;;1.37;1.10;;;19.10;99.90;;;;;;4398673;32;20073;-61
2023/10/14 01:01:18;;;;;;;0.73;0.65;;;19.10;99.90;;;;;;4385893;32;20525;-61
2023/10/14 01:03:48;;;;;;;1.23;0.77;;;19.10;99.90;;;;;;4398437;32;20065;-62
2023/10/14 01:06:22;;;;;;;4.47;0.90;;;19.10;99.90;;;;;;4398627;32;20098;-60
2023/10/14 01:08:50;;;;;;;3.47;1.92;;;19.10;99.90;;;;;;4399554;32;20191;-60
2023/10/14 01:11:17;;;;;;;0.57;0.55;;;19.00;99.90;;;;;;4370697;32;20835;-59
2023/10/14 01:13:45;;;;;;;0.68;0.68;;;19.00;99.90;;;;;;4399118;32;20452;-61
2023/10/14 01:16:11;;;;;;;0.43;0.43;;;19.00;99.90;;;;;;4383785;32;20075;-62
2023/10/14 01:18:39;;;;;;;1.25;1.08;;;19.00;99.90;;;;;;4381567;32;20078;-62
2023/10/14 01:21:06;;;;;;;3.12;0.70;;;19.00;99.90;;;;;;4398243;32;20100;-60
2023/10/14 01:23:35;;;;;;;2.10;0.95;;;18.90;99.90;;;;;;4386594;32;20110;-60
2023/10/14 01:26:04;;;;;;;4.32;1.20;;;19.00;99.90;;;;;;4385956;32;20106;-60
2023/10/14 01:28:30;;;;;;;1.65;0.93;;;19.00;99.90;;;;;;4396576;32;20117;-61
2023/10/14 01:33:57;;;;;;;0.68;0.68;;;19.00;99.90;;;;;;4389029;32;20429;-61
2023/10/14 01:36:27;;;;;;;0.90;0.73;;;19.00;99.90;;;;;;4398752;32;20228;-62
2023/10/14 01:39:04;;;;;;;0.47;0.47;;;19.00;99.90;;;;;;4387987;32;20416;-61
2023/10/14 01:41:30;;;;;;;0.65;0.65;;;19.00;99.90;;;;;;4386809;32;20199;-61
2023/10/14 01:43:57;;;;;;;0.80;0.80;;;19.00;99.90;;;;;;4398372;32;20088;-60
2023/10/14 01:46:27;;;;;;;0.60;0.60;;;19.00;99.90;;;;;;4397856;32;20931;-62
2023/10/14 01:48:53;;;;;;;0.30;0.30;;;19.00;99.90;;;;;;4395615;32;20073;-62
2023/10/14 01:51:19;;;;;;;0.95;0.77;;;19.00;99.90;;;;;;4397832;32;20132;-60
2023/10/14 01:53:45;;;;;;;4.32;1.33;;;19.00;99.90;;;;;;4399617;32;20085;-60
2023/10/14 01:56:10;;;;;;;0.57;0.57;;;18.90;99.90;;;;;;4395616;32;20563;-62
2023/10/14 01:58:36;;;;;;;4.00;1.80;;;18.90;99.90;;;;;;4396407;32;20082;-61
2023/10/14 02:01:12;;;;;;;0.30;0.30;;;18.80;99.90;;;;;;4397890;32;20107;-60
2023/10/14 02:03:44;;;;;;;1.48;0.95;;;18.80;99.90;;;;;;4399498;32;20105;-61
2023/10/14 02:06:16;;;;;;;0.50;0.50;;;18.70;99.90;;;;;;4370962;32;20173;-61
2023/10/14 02:08:44;;;;;;;2.05;1.17;;;18.70;99.90;;;;;;4397716;32;20447;-60
2023/10/14 02:11:10;;;;;;;1.87;1.30;;;18.70;99.90;;;;;;4397770;32;20086;-61
2023/10/14 02:13:36;;;;;;;2.03;0.80;;;18.80;99.90;;;;;;4401645;32;20062;-61
2023/10/14 02:16:06;;;;;;;0.50;0.50;;;18.70;99.90;;;;;;4398790;32;20081;-60
2023/10/14 02:18:36;;;;;;;0.50;0.50;;;18.70;99.90;;;;;;4382661;32;20132;-60
2023/10/14 02:21:05;;;;;;;0.45;0.45;;;18.70;99.90;;;;;;4381420;32;20062;-61
2023/10/14 02:23:48;;;;;;;2.47;1.27;;;18.70;99.90;;;;;;4386040;32;20168;-61
2023/10/14 02:26:16;;;;;;;3.85;1.25;;;18.70;99.90;;;;;;4396528;32;20106;-61
2023/10/14 02:28:45;;;;;;;2.80;1.65;;;18.70;99.90;;;;;;4395552;32;20078;-61
2023/10/14 02:31:17;;;;;;;0.60;0.60;;;18.70;99.90;;;;;;4398750;32;20090;-61
2023/10/14 02:33:45;;;;;;;1.02;0.82;;;18.80;99.90;;;;;;4401390;32;20089;-60
2023/10/14 02:36:15;;;;;;;1.00;0.90;;;18.80;99.90;;;;;;4398993;32;20135;-61
2023/10/14 02:38:46;;;;;;;1.12;0.82;;;18.80;99.90;;;;;;4398697;32;21658;-60
2023/10/14 02:41:16;;;;;;;0.73;0.73;;;18.80;99.90;;;;;;4398895;32;20390;-61
2023/10/14 02:43:42;;;;;;;0.97;0.93;;;18.90;99.90;;;;;;4401165;32;20470;-61
2023/10/14 02:46:11;;;;;;;0.62;0.62;;;18.90;99.90;;;;;;4397328;32;20931;-61
2023/10/14 02:48:53;;;;;;;0.43;0.43;;;18.90;99.90;;;;;;4399271;32;20160;-60
2023/10/14 02:51:29;;;;;;;0.47;0.47;;;18.90;99.90;;;;;;4386817;32;20101;-60
2023/10/14 02:53:56;;;;;;;3.30;1.20;;;19.00;99.90;;;;;;4397283;32;20179;-60
2023/10/14 02:56:32;;;;;;;0.50;0.50;;;19.00;99.90;;;;;;4394341;32;20089;-61
2023/10/14 02:58:58;;;;;;;1.62;0.98;;;19.00;99.90;;;;;;4396394;32;20081;-59
2023/10/14 03:01:31;;;;;;;1.02;0.88;;;19.00;99.90;;;;;;4398870;32;21343;-61
2023/10/14 03:03:57;;;;;;;1.95;1.20;;;19.10;99.90;;;;;;4400432;32;20634;-61
2023/10/14 03:06:23;;;;;;;0.52;0.52;;;19.30;99.90;;;;;;4396993;32;20070;-61
2023/10/14 03:08:57;;;;;;;0.77;0.77;;;19.30;99.90;;;;;;4397431;32;20494;-61
2023/10/14 03:11:26;;;;;;;2.65;0.73;;;19.40;99.90;;;;;;4398767;32;20098;-61
2023/10/14 03:13:52;;;;;;;1.65;0.57;;;19.60;99.90;;;;;;4387852;32;20534;-61
2023/10/14 03:16:17;;;;;;;0.88;0.85;;;19.70;99.90;;;;;;4397505;32;20090;-60
2023/10/14 03:18:44;;;;;;;1.98;0.85;;;19.70;99.90;;;;;;4396390;32;20139;-62
2023/10/14 03:21:12;;;;;;;25.42;3.20;;;19.70;99.90;;;;;;4397000;32;20184;-61
2023/10/14 03:23:38;;;;;;;2.87;1.10;;;19.70;99.90;;;;;;4385544;32;20093;-61
2023/10/14 03:26:13;;;;;;;0.60;0.60;;;19.60;99.90;;;;;;4398875;32;20585;-61
2023/10/14 03:28:39;;;;;;;1.08;0.68;;;19.60;99.90;;;;;;4396443;32;20078;-61
2023/10/14 03:31:08;;;;;;;1.08;0.88;;;19.60;99.90;;;;;;4383194;32;20215;-62
2023/10/14 03:33:42;;;;;;;0.52;0.52;;;19.60;99.90;;;;;;4382788;32;20095;-61
2023/10/14 03:36:08;;;;;;;4.85;1.35;;;19.60;99.90;;;;;;4398087;32;20089;-61
2023/10/14 03:41:10;;;;;;;2.15;1.17;;;19.50;99.90;;;;;;4375839;32;20534;-62
2023/10/14 03:43:48;;;;;;;2.10;0.85;;;19.50;99.90;;;;;;4390840;32;20097;-61
2023/10/14 03:46:15;;;;;;;0.50;0.50;;;19.50;99.90;;;;;;4399575;32;20502;-61
2023/10/14 03:48:54;;;;;;;0.75;0.75;;;19.50;99.90;;;;;;4398651;32;20113;-61
2023/10/14 03:51:24;;;;;;;0.90;0.88;;;19.50;99.90;;;;;;4387772;32;20105;-61
2023/10/14 03:53:54;;;;;;;1.00;0.85;;;19.50;99.90;;;;;;4396612;32;20092;-60
2023/10/14 03:56:22;;;;;;;0.50;0.50;;;19.50;99.90;;;;;;4398200;32;20152;-60
2023/10/14 03:58:49;;;;;;;4.25;0.93;;;19.50;99.90;;;;;;4395305;32;20070;-62
2023/10/14 04:01:22;;;;;;;0.90;0.90;;;19.50;99.90;;;;;;4399506;32;20105;-62
2023/10/14 04:03:51;;;;;;;4.43;1.58;;;19.50;99.90;;;;;;4402029;32;20074;-60
2023/10/14 04:06:19;;;;;;;0.60;0.60;;;19.50;99.90;;;;;;4388229;32;20067;-61
2023/10/14 04:08:49;;;;;;;0.90;0.73;;;19.50;99.90;;;;;;4400612;32;20085;-61
2023/10/14 04:11:16;;;;;;;0.70;0.70;;;19.50;99.90;;;;;;4385429;32;20591;-61
2023/10/14 04:13:51;;;;;;;0.93;0.88;;;19.50;99.90;;;;;;4372992;32;20447;-61
2023/10/14 04:16:27;;;;;;;1.25;1.10;;;19.50;99.90;;;;;;4373581;32;21887;-62
2023/10/14 04:18:59;;;;;;;0.60;0.60;;;19.40;99.90;;;;;;4373031;32;20102;-61
2023/10/14 04:21:35;;;;;;;0.98;0.80;;;19.60;99.90;;;;;;4386163;32;20098;-61
2023/10/14 04:24:12;;;;;;;8.45;1.58;;;19.60;99.90;;;;;;4398647;32;20078;-61
2023/10/14 04:26:41;;;;;;;0.73;0.73;;;19.60;99.90;;;;;;4401297;32;20098;-62
2023/10/14 04:29:12;;;;;;;0.50;0.50;;;19.60;99.90;;;;;;4402043;32;20588;-61
2023/10/14 04:31:39;;;;;;;0.68;0.68;;;19.60;99.90;;;;;;4402453;32;20082;-62
2023/10/14 04:34:06;;;;;;;5.97;1.60;;;19.60;99.90;;;;;;4401061;32;20082;-62
2023/10/14 04:39:07;;;;;;;10.93;2.35;;;19.50;99.90;;;;;;4399126;32;20419;-62
2023/10/14 04:41:36;;;;;;;7.80;2.50;;;19.50;99.90;;;;;;4386761;32;20523;-61
2023/10/14 04:44:02;;;;;;;1.12;1.00;;;19.40;99.90;;;;;;4398835;32;20123;-61
2023/10/14 04:46:46;;;;;;;6.45;2.25;;;19.40;99.90;;;;;;4401492;32;20842;-61
2023/10/14 04:49:15;;;;;;;0.45;0.45;;;19.40;99.90;;;;;;4388930;32;20069;-61
2023/10/14 04:51:45;;;;;;;1.70;1.00;;;19.30;99.90;;;;;;4401718;32;20114;-64
2023/10/14 04:54:12;;;;;;;32.47;1.33;;;19.30;99.90;;;;;;4402370;32;20541;-61
2023/10/14 04:56:37;;;;;;;0.70;0.70;;;19.30;99.90;;;;;;4385622;32;20093;-61
2023/10/14 04:59:05;;;;;;;1.98;0.40;;;19.20;99.90;;;;;;4398045;32;20130;-61
2023/10/14 05:01:32;;;;;;;1.30;0.85;;;19.20;99.90;;;;;;4400597;32;20078;-60
2023/10/14 05:03:58;;;;;;;1.02;0.70;;;19.00;99.90;;;;;;4389856;32;20128;-60
2023/10/14 05:06:40;;;;;;;0.47;0.47;;;18.80;99.90;;;;;;4400477;32;20086;-60
2023/10/14 05:09:25;;;;;;;3.30;1.33;;;18.40;99.90;;;;;;4385526;32;20514;-61
2023/10/14 05:11:50;;;;;;;0.75;0.70;;;18.00;99.90;;;;;;4399427;32;21152;-60
2023/10/14 05:14:16;;;;;;;3.30;1.75;;;17.90;99.90;;;;;;4403433;32;20125;-60
2023/10/14 05:17:03;;;;;;;1.08;0.82;;;17.70;99.90;;;;;;4397208;32;20078;-62
2023/10/14 05:19:41;;;;;;;3.95;1.83;;;17.60;99.90;;;;;;4374900;32;20089;-61
2023/10/14 05:22:10;;;;;;;0.80;0.80;;;17.50;99.90;;;;;;4397866;32;20519;-60
2023/10/14 05:24:39;;;;;;;1.52;0.70;;;17.40;99.90;;;;;;4386884;32;20089;-61
2023/10/14 05:27:05;;;;;;;3.53;2.28;;;17.40;99.90;;;;;;4383643;32;20846;-62
2023/10/14 05:29:30;;;;;;;0.40;0.40;;;17.40;99.90;;;;;;4381831;32;20143;-62
2023/10/14 05:32:31;;;;;;;0.35;0.35;;;17.30;99.90;;;;;;4385265;32;20808;-61
2023/10/14 05:34:44;;;;;;;0.50;0.50;;;17.20;99.90;;;;;;4375200;32;20085;-60
2023/10/14 05:37:11;;;;;;;25.85;3.17;;;17.10;99.90;;;;;;4399256;32;20569;-61
2023/10/14 05:39:38;;;;;;;0.50;0.50;;;17.00;99.90;;;;;;4394478;32;20083;-61
2023/10/14 05:42:13;;;;;;;26.52;3.08;;;16.90;99.90;;;;;;4399743;32;20117;-61
2023/10/14 05:44:46;;;;;;;0.50;0.50;;;16.90;99.90;;;;;;4398009;32;20089;-61
2023/10/14 05:47:12;;;;;;;0.50;0.50;;;16.90;99.90;;;;;;4399479;32;20202;-63
2023/10/14 05:49:37;;;;;;;0.70;0.45;;;16.80;99.90;;;;;;4399910;32;20589;-61
2023/10/14 05:52:03;;;;;;;0.40;0.40;;;16.70;99.90;;;;;;4386451;32;20085;-60
2023/10/14 05:54:29;;;;;;;0.37;0.37;;;16.50;99.90;;;;;;4392170;32;20128;-60
2023/10/14 05:56:54;;;;;;;0.28;0.28;;;16.20;99.90;;;;;;4390627;32;20090;-60
2023/10/14 05:59:19;;;;;;;0.28;0.28;;;16.10;99.90;;;;;;4395463;32;20089;-61
2023/10/14 06:04:12;;;;;;;0.30;0.30;;;15.60;99.90;;;;;;4393413;32;20085;-60
2023/10/14 06:06:38;;;;;;;3.85;1.75;;;15.50;99.90;;;;;;4396156;32;20078;-61
2023/10/14 06:09:07;;;;;;;0.40;0.40;;;15.20;99.90;;;;;;4398269;32;20723;-61
2023/10/14 06:11:32;;;;;;;0.20;0.20;;;15.20;99.90;;;;;;4396042;32;20106;-60
2023/10/14 06:13:58;;;;;;;1.00;0.47;;;15.10;99.90;;;;;;4383014;32;20128;-59
2023/10/14 06:16:25;;;;;;;0.30;0.30;;;14.90;99.90;;;;;;4393839;32;20078;-60
2023/10/14 06:18:51;;;;;;;0.30;0.30;;;14.80;99.90;;;;;;4393611;32;20246;-58
2023/10/14 06:21:16;;;;;;;0.52;0.52;;;14.80;99.90;;;;;;4382060;32;20424;-60
2023/10/14 06:23:47;;;;;;;0.30;0.30;;;14.70;99.90;;;;;;4390582;32;20089;-61
2023/10/14 06:26:17;;;;;;;0.20;0.20;;;14.80;99.90;;;;;;4371520;32;20074;-59
2023/10/14 06:28:43;;;;;;;0.30;0.30;;;14.70;99.90;;;;;;4379114;32;20490;-61
2023/10/14 06:31:09;;;;;;;0.30;0.30;;;14.60;99.90;;;;;;4393651;32;20098;-60
2023/10/14 06:33:35;;;;;;;0.40;0.40;;;14.60;99.90;;;;;;4389601;32;20089;-61
2023/10/14 06:36:04;;;;;;;0.50;0.50;;;14.60;99.90;;;;;;4389089;32;20968;-61
2023/10/14 06:38:29;;;;;;;0.40;0.40;;;14.60;99.90;;;;;;4394490;32;20077;-61
2023/10/14 06:41:01;;;;;;;0.30;0.30;;;14.50;99.90;;;;;;4382275;32;20403;-61
2023/10/14 06:43:27;;;;;;;0.40;0.40;;;14.50;99.90;;;;;;4380240;32;20086;-61
2023/10/14 06:45:53;;;;;;;0.22;0.22;;;14.40;99.90;;;;;;4394935;32;20075;-62
2023/10/14 06:48:19;;;;;;;0.20;0.20;;;14.40;99.90;;;;;;4388227;32;20117;-60
2023/10/14 06:50:47;;;;;;;0.32;0.32;;;14.40;99.90;;;;;;4393211;32;20073;-61
2023/10/14 06:53:14;;;;;;;0.28;0.28;;;14.40;99.90;;;;;;4377654;32;20431;-58
2023/10/14 06:55:40;;;;;;;0.40;0.40;;;14.40;99.90;;;;;;4397255;32;20085;-62
2023/10/14 06:58:09;;;;;;;0.80;0.50;;;14.40;99.90;;;;;;4374443;32;20541;-61
2023/10/14 07:00:38;;;;;;;0.30;0.30;;;14.40;99.90;;;;;;4379391;32;20251;-60
2023/10/14 07:03:10;;;;;;;0.40;0.40;;;14.40;99.90;;;;;;4391317;32;20460;-61
2023/10/14 07:05:43;;;;;;;0.30;0.30;;;14.30;99.90;;;;;;4380128;32;20418;-62
2023/10/14 07:08:09;;;;;;;0.80;0.50;;;14.20;99.90;;;;;;4391404;32;20085;-59
2023/10/14 07:10:34;;;;;;;0.30;0.30;;;14.20;99.90;;;;;;4379420;32;20090;-62
2023/10/14 07:13:01;;;;;;;0.30;0.30;;;14.10;99.90;;;;;;4393948;32;20480;-61
2023/10/14 07:15:30;;;;;;;0.30;0.30;;;14.20;99.90;;;;;;4381466;32;20094;-61
2023/10/14 07:17:56;;;;;;;0.20;0.20;;;14.20;99.90;;;;;;4377742;32;20097;-61
2023/10/14 07:20:22;;;;;;;0.40;0.40;;;14.30;99.90;;;;;;4392723;32;20115;-61
2023/10/14 07:22:49;;;;;;;0.65;0.65;;;14.20;99.90;;;;;;4378845;32;20505;-62
2023/10/14 07:25:15;;;;;;;0.30;0.30;;;14.30;99.90;;;;;;4393467;32;20106;-60
2023/10/14 07:27:41;;;;;;;0.30;0.30;;;14.30;99.90;;;;;;4391841;32;20245;-62
2023/10/14 07:30:13;;;;;;;0.20;0.20;;;14.40;99.90;;;;;;4377426;32;20097;-62
2023/10/14 07:32:41;;;;;;;0.22;0.22;;;14.50;99.90;;;;;;4378912;32;20102;-60
2023/10/14 07:35:11;;;;;;;0.20;0.20;;;14.50;99.90;;;;;;4393522;32;20058;-62
2023/10/14 07:37:40;;;;;;;0.30;0.30;;;14.40;99.90;;;;;;4391276;32;20093;-62
2023/10/14 07:40:11;;;;;;;0.20;0.20;;;14.30;99.90;;;;;;4392483;32;20120;-60
2023/10/14 07:42:37;;;;;;;0.30;0.30;;;14.40;99.90;;;;;;4379282;32;20098;-61
2023/10/14 07:45:03;;;;;;;0.30;0.30;;;14.30;99.90;;;;;;4395629;32;20591;-61
2023/10/14 07:47:29;;;;;;;0.40;0.40;;;14.20;99.90;;;;;;4392047;32;20097;-61
2023/10/14 07:49:54;;;;;;;0.40;0.40;;;14.20;99.90;;;;;;4390582;32;20152;-61
2023/10/14 07:52:20;;;;;;;0.25;0.25;;;14.10;99.90;;;;;;4394794;32;20450;-61
2023/10/14 07:54:48;;;;;;;0.20;0.20;;;14.10;99.90;;;;;;4397491;32;20596;-62
2023/10/14 07:57:13;;;;;;;0.30;0.30;;;14.20;99.90;;;;;;4391243;32;20129;-61
2023/10/14 07:59:39;;;;;;;0.20;0.20;;;14.10;99.90;;;;;;4391524;32;20094;-59
2023/10/14 08:02:07;;;;;;;0.60;0.60;;;14.20;99.90;;;;;;4393819;32;20180;-62
2023/10/14 08:04:32;;;;;;;0.73;0.70;;;14.30;99.90;;;;;;4394628;32;20061;-62
2023/10/14 08:06:58;;;;;;;1.45;0.70;;;14.40;99.90;;;;;;4392481;32;20998;-61
2023/10/14 08:09:24;;;;;;;0.35;0.35;;;14.40;99.90;;;;;;4393831;32;20082;-62
2023/10/14 08:11:50;;;;;;;0.30;0.30;;;14.40;99.90;;;;;;4397072;32;20065;-62
2023/10/14 08:14:16;;;;;;;0.30;0.25;;;14.50;99.90;;;;;;4392395;32;20066;-61
2023/10/14 08:16:42;;;;;;;0.30;0.30;;;14.50;99.90;;;;;;4390754;32;20085;-62
2023/10/14 08:19:10;;;;;;;0.30;0.30;;;14.60;99.90;;;;;;4391345;32;20090;-62
2023/10/14 08:21:36;;;;;;;0.30;0.30;;;14.60;99.90;;;;;;4394552;32;20148;-62
2023/10/14 08:24:05;;;;;;;0.40;0.40;;;14.60;99.90;;;;;;4391546;32;20086;-62
2023/10/14 08:26:34;;;;;;;1.17;0.65;;;14.70;99.90;;;;;;4390577;32;20109;-62
2023/10/14 08:29:01;;;;;;;1.25;0.52;;;14.70;99.90;;;;;;4376226;32;20095;-62
2023/10/14 08:31:27;;;;;;;0.50;0.50;;;14.80;99.90;;;;;;4394127;32;20169;-61
2023/10/14 08:33:53;;;;;;;0.50;0.50;;;14.80;99.90;;;;;;4396709;32;20497;-61
2023/10/14 08:36:18;;;;;;;0.40;0.40;;;14.80;99.90;;;;;;4395345;32;20101;-61
2023/10/14 08:38:44;;;;;;;0.60;0.60;;;14.70;99.90;;;;;;4397320;32;20546;-61
2023/10/14 08:41:14;;;;;;;0.40;0.40;;;14.80;99.90;;;;;;4394732;32;21454;-62
2023/10/14 08:43:44;;;;;;;7.07;1.73;;;14.90;99.90;;;;;;4381675;32;20095;-63
2023/10/14 08:46:12;;;;;;;;;;;15.00;99.90;;;;;;4375687;32;20508;-61
2023/10/14 08:48:39;;;;;;;0.30;0.30;;;15.00;99.90;;;;;;4396665;32;19952;-61
2023/10/14 08:51:08;;;;;;;1.70;0.88;;;14.90;99.90;;;;;;4398799;32;20110;-62
2023/10/14 08:53:40;;;;;;;0.30;0.30;;;15.00;99.90;;;;;;4386314;32;20077;-62
2023/10/14 08:56:07;;;;;;;0.30;0.30;;;15.00;99.90;;;;;;4385415;32;20081;-63
2023/10/14 08:58:36;;;;;;;0.30;0.30;;;15.00;99.90;;;;;;4398282;32;20049;-61
2023/10/14 09:01:05;;;;;;;1.65;0.50;;;15.00;99.90;;;;;;4397496;32;20078;-61
2023/10/14 09:03:31;;;;;;;0.95;0.82;;;15.10;99.90;;;;;;4384684;32;20073;-62
2023/10/14 09:05:57;;;;;;;0.40;0.40;;;15.20;99.90;;;;;;4404532;32;20054;-61
2023/10/14 09:08:24;;;;;;;0.73;0.62;;;15.20;99.90;;;;;;4400570;32;20580;-62
2023/10/14 09:10:50;;;;;;;1.60;0.90;;;15.30;99.90;;;;;;4400258;32;20171;-62
2023/10/14 09:13:23;;;;;;;0.65;0.65;;;15.50;99.90;;;;;;4385961;32;20077;-61
2023/10/14 09:15:50;;;;;;;0.20;0.20;;;15.50;99.90;;;;;;4389590;32;20094;-62
2023/10/14 09:18:19;;;;;;;0.40;0.40;;;15.60;99.90;;;;;;4383576;32;20054;-61
2023/10/14 09:20:53;;;;;;;0.50;0.50;;;15.60;99.90;;;;;;4400462;32;20066;-61
2023/10/14 09:23:24;;;;;;;0.55;0.55;;;15.60;99.90;;;;;;4386902;32;20154;-62
2023/10/14 09:25:50;;;;;;;;;;;15.50;99.90;;;;;;4387746;32;20077;-62
2023/10/14 09:28:19;;;;;;;1.48;1.37;;;15.40;99.90;;;;;;4398153;32;19965;-60
2023/10/14 09:30:49;;;;;;;2.12;0.82;;;15.30;99.90;;;;;;4399984;32;20709;-62
2023/10/14 09:33:17;;;;;;;0.30;0.30;;;15.40;99.90;;;;;;4400743;32;20106;-61
2023/10/14 09:35:45;;;;;;;0.60;0.60;;;15.50;99.90;;;;;;4388341;32;20478;-62
2023/10/14 09:38:14;;;;;;;0.50;0.50;;;15.50;99.90;;;;;;4398061;32;20090;-61
2023/10/14 09:40:40;;;;;;;0.60;0.60;;;15.70;99.90;;;;;;4386504;32;20078;-61
2023/10/14 09:43:06;;;;;;;0.40;0.40;;;15.60;99.90;;;;;;4401001;32;20058;-62
2023/10/14 09:45:32;;;;;;;0.37;0.37;;;15.70;99.90;;;;;;4401855;32;20106;-61
2023/10/14 09:47:59;;;;;;;0.30;0.30;;;15.60;99.90;;;;;;4400584;32;20120;-62
2023/10/14 09:50:25;;;;;;;1.00;0.40;;;15.60;99.90;;;;;;4387930;32;20620;-62
2023/10/14 09:52:52;;;;;;;8.48;1.40;;;15.60;99.90;;;;;;4387811;32;20105;-62
2023/10/14 09:55:20;;;;;;;0.40;0.40;;;15.70;99.90;;;;;;4404620;32;20062;-61
2023/10/14 09:57:47;;;;;;;2.25;0.50;;;15.60;99.90;;;;;;4396747;32;20148;-61
2023/10/14 10:00:16;;;;;;;0.30;0.30;;;15.50;99.90;;;;;;4383598;32;20118;-60
2023/10/14 10:02:43;;;;;;;0.40;0.40;;;15.50;99.90;;;;;;4385147;32;20074;-60
2023/10/14 10:05:15;;;;;;;0.45;0.45;;;15.40;99.90;;;;;;4403606;32;20062;-61
2023/10/14 10:08:17;;;;;;;0.50;0.50;;;15.50;99.90;;;;;;4387523;32;20094;-60
2023/10/14 10:10:47;;;;;;;2.17;0.85;;;15.40;99.90;;;;;;4391863;32;20157;-61
2023/10/14 10:13:13;;;;;;;0.43;0.43;;;15.30;99.90;;;;;;4388167;32;20089;-61
2023/10/14 10:15:40;;;;;;;1.40;0.80;;;15.40;99.90;;;;;;4402372;32;20069;-61
2023/10/14 10:18:12;;;;;;;11.25;0.80;;;15.60;99.90;;;;;;4398252;32;20097;-61
2023/10/14 10:20:47;;;;;;;0.35;0.35;;;15.70;99.90;;;;;;4384815;32;20086;-62
2023/10/14 10:23:14;;;;;;;0.62;0.62;;;15.90;99.90;;;;;;4397848;32;20406;-60
2023/10/14 10:25:47;;;;;;;0.30;0.30;;;16.00;99.90;;;;;;4399547;32;20137;-61
2023/10/14 10:28:34;;;;;;;0.43;0.43;;;16.10;99.90;;;;;;4397216;32;20094;-61
2023/10/14 10:31:13;;;;;;;1.48;0.70;;;16.20;99.90;;;;;;4397113;32;20109;-62
2023/10/14 10:33:45;;;;;;;0.40;0.40;;;16.10;99.90;;;;;;4387051;32;20145;-62
2023/10/14 10:36:12;;;;;;;0.40;0.40;;;15.90;99.90;;;;;;4397274;32;20093;-61
2023/10/14 10:38:38;;;;;;;1.37;1.25;;;15.90;99.90;;;;;;4398423;32;20496;-61
2023/10/14 10:41:24;;;;;;;2.00;0.73;;;15.80;99.90;;;;;;4399123;32;20087;-62
2023/10/14 10:44:00;;;;;;;1.08;0.95;;;15.90;99.90;;;;;;4399226;32;20107;-61
2023/10/14 10:46:30;;;;;;;0.88;0.77;;;15.80;99.90;;;;;;4387704;32;20853;-62
2023/10/14 10:48:56;;;;;;;1.50;0.80;;;15.80;99.90;;;;;;4383989;32;20078;-61
2023/10/14 10:51:22;;;;;;;0.57;0.57;;;15.90;99.90;;;;;;4399700;32;20570;-61
2023/10/14 10:53:49;;;;;;;1.08;0.98;;;15.90;99.90;;;;;;4399434;32;20090;-60
2023/10/14 10:56:18;;;;;;;0.43;0.43;;;15.80;99.90;;;;;;4397303;32;20070;-62
2023/10/14 10:58:44;;;;;;;0.28;0.28;;;16.00;99.90;;;;;;4395892;32;20070;-62
2023/10/14 11:01:11;;;;;;;1.65;0.77;;;16.20;99.90;;;;;;4396899;32;20061;-61
2023/10/14 11:03:36;;;;;;;0.30;0.30;;;16.20;99.90;;;;;;4386326;32;20089;-62
2023/10/14 11:06:02;;;;;;;0.75;0.55;;;16.20;99.90;;;;;;4398465;32;20078;-62
2023/10/14 11:08:28;;;;;;;29.77;1.42;;;16.20;99.90;;;;;;4400366;32;20101;-62
2023/10/14 11:10:56;;;;;;;0.43;0.43;;;16.20;99.90;;;;;;4400430;32;21211;-62
2023/10/14 11:13:22;;;;;;;0.45;0.45;;;16.20;99.90;;;;;;4398992;32;20081;-62
2023/10/14 11:15:50;;;;;;;0.30;0.30;;;16.30;99.90;;;;;;4398269;32;20090;-61
2023/10/14 11:18:18;;;;;;;1.12;0.47;;;16.50;99.90;;;;;;4392559;32;20113;-60
2023/10/14 11:20:45;;;;;;;0.32;0.32;;;16.70;99.90;;;;;;4399336;32;20081;-62
2023/10/14 11:23:12;;;;;;;0.30;0.30;;;16.80;99.90;;;;;;4384866;32;20097;-62
2023/10/14 11:25:40;;;;;;;0.85;0.80;;;16.80;99.90;;;;;;4386474;32;20516;-62
2023/10/14 11:28:09;;;;;;;0.30;0.30;;;16.80;99.90;;;;;;4383381;32;20137;-62
2023/10/14 11:30:41;;;;;;;0.40;0.40;;;16.90;99.90;;;;;;4383537;32;20085;-62
2023/10/14 11:33:09;;;;;;;1.12;1.02;;;16.80;99.90;;;;;;4396329;32;20133;-63
2023/10/14 11:35:37;;;;;;;0.80;0.60;;;16.90;99.90;;;;;;4373656;32;20102;-62
2023/10/14 11:38:06;;;;;;;2.67;1.15;;;17.00;99.90;;;;;;4377996;32;20642;-62
2023/10/14 11:40:33;;;;;;;1.17;0.70;;;17.20;99.90;;;;;;4383443;32;20089;-62
2023/10/14 11:42:58;;;;;;;0.30;0.30;;;17.20;99.90;;;;;;4384095;32;20196;-62
2023/10/14 11:45:24;;;;;;;0.50;0.50;;;17.20;99.90;;;;;;4385430;32;20078;-62
2023/10/14 11:47:52;;;;;;;0.40;0.40;;;17.10;99.90;;;;;;4395909;32;21405;-62
2023/10/14 11:50:18;;;;;;;5.30;1.20;;;16.80;99.90;;;;;;4382430;32;87385;-62
2023/10/14 11:52:47;;;;;;;0.40;0.40;;;16.60;99.90;;;;;;4395930;32;20164;-62
2023/10/14 11:55:16;;;;;;;0.60;0.60;;;16.50;99.90;;;;;;4386133;32;21336;-62
2023/10/14 11:57:42;;;;;;;0.60;0.60;;;16.50;99.90;;;;;;4395919;32;20102;-61
2023/10/14 12:02:34;;;;;;;1.30;0.73;;;16.40;99.90;;;;;;4397859;32;20097;-61
2023/10/14 12:05:03;;;;;;;0.60;0.60;;;16.70;99.90;;;;;;4399372;32;20061;-62
2023/10/14 12:07:32;;;;;;;17.85;0.52;;;17.40;99.90;;;;;;4398404;32;20086;-63
2023/10/14 12:09:59;;;;;;;0.62;0.62;;;18.30;99.90;;;;;;4395934;32;20100;-63
2023/10/14 12:12:26;;;;;;;1.27;0.88;;;19.20;99.90;;;;;;4382013;32;20526;-63
2023/10/14 12:14:52;;;;;;;5.47;1.15;;;19.60;99.90;;;;;;4386555;32;20082;-61
2023/10/14 12:17:18;;;;;;;0.40;0.40;;;19.90;99.90;;;;;;4396836;32;20153;-62
2023/10/14 12:19:43;;;;;;;0.30;0.30;;;20.30;99.90;;;;;;4396620;32;20559;-63
2023/10/14 12:22:09;;;;;;;1.08;0.62;;;20.60;99.90;;;;;;4397406;32;20094;-62
2023/10/14 12:24:34;;;;;;;0.35;0.35;;;20.50;99.90;;;;;;4405027;32;20073;-62
2023/10/14 12:27:01;;;;;;;0.47;0.40;;;20.60;99.90;;;;;;4402095;32;20529;-63
2023/10/14 12:29:26;;;;;;;0.20;0.20;;;20.60;98.80;;;;;;4402406;32;20077;-62
2023/10/14 12:31:58;;;;;;;0.57;0.57;;;21.10;98.30;;;;;;4402503;32;20113;-60
2023/10/14 12:34:24;;;;;;;2.55;1.20;;;21.40;98.10;;;;;;4389545;32;20137;-63
2023/10/14 12:36:52;;;;;;;0.20;0.20;;;21.70;97.40;;;;;;4400393;32;21597;-60
2023/10/14 12:39:19;;;;;;;0.35;0.35;;;21.30;96.80;;;;;;4401400;32;20110;-63
2023/10/14 12:41:47;;;;;;;2.42;0.30;;;20.60;96.90;;;;;;4386940;32;20074;-60
2023/10/14 12:44:13;;;;;;;0.70;0.62;;;20.00;98.70;;;;;;4401417;32;20127;-62
2023/10/14 12:46:43;;;;;;;0.43;0.43;;;19.20;99.20;;;;;;4399639;32;20568;-61
2023/10/14 12:49:10;;;;;;;0.23;0.23;;;18.40;99.90;;;;;;4401682;32;20093;-62
2023/10/14 12:51:43;;;;;;;2.45;1.12;;;17.90;99.90;;;;;;4401430;32;20518;-62
2023/10/14 12:54:16;;;;;;;0.32;0.32;;;17.70;99.90;;;;;;4387998;32;20062;-62
2023/10/14 12:56:43;;;;;;;0.40;0.40;;;17.60;99.90;;;;;;4401029;32;20110;-62
2023/10/14 12:59:12;;;;;;;0.30;0.30;;;17.60;99.90;;;;;;4387367;32;20156;-62
2023/10/14 13:01:39;;;;;;;0.57;0.50;;;17.80;99.90;;;;;;4403094;32;20542;-62
2023/10/14 13:04:12;;;;;;;1.20;0.65;;;17.90;99.90;;;;;;4386705;32;20074;-62
2023/10/14 13:06:44;;;;;;;0.47;0.47;;;17.90;99.90;;;;;;4389476;32;20090;-62
2023/10/14 13:09:11;;;;;;;0.47;0.47;;;17.80;99.90;;;;;;4403455;32;20420;-63